Time;durP1;ratioP1;P1;durP2;ratioP2;P2;SDS_P1;SDS_P2;PMS_P1;PMS_P2;Temp;Humidity;BMP_temperature;BMP_pressure;BME280_temperature;BME280_humidity;BME280_pressure;Samples;Min_cycle;Max_cycle;Signal;HPM_P1;HPM_P2
2023/09/04 00:02:14;;;;;;;10.17;9.47;;;15.40;99.90;;;;;;4985269;28;20201;-78
2023/09/04 00:04:41;;;;;;;11.70;10.70;;;15.40;99.90;;;;;;4986515;28;20201;-78
2023/09/04 00:07:08;;;;;;;10.53;9.73;;;15.30;99.90;;;;;;4985673;28;20221;-77
2023/09/04 00:09:35;;;;;;;10.23;9.53;;;15.30;99.90;;;;;;4985473;28;20209;-77
2023/09/04 00:12:02;;;;;;;10.70;9.87;;;15.30;99.90;;;;;;4985297;28;20223;-78
2023/09/04 00:14:29;;;;;;;9.70;8.90;;;15.30;99.90;;;;;;4985970;28;20635;-78
2023/09/04 00:16:55;;;;;;;8.43;7.83;;;15.30;99.90;;;;;;4984996;28;20210;-77
2023/09/04 00:19:24;;;;;;;9.20;8.50;;;15.30;99.90;;;;;;4984915;28;20215;-76
2023/09/04 00:21:50;;;;;;;9.50;8.70;;;15.30;99.90;;;;;;4984583;28;20224;-77
2023/09/04 00:24:20;;;;;;;9.30;8.50;;;15.30;99.90;;;;;;4984166;28;20243;-77
2023/09/04 00:26:47;;;;;;;9.37;8.47;;;15.30;99.90;;;;;;4984761;28;20233;-77
2023/09/04 00:29:13;;;;;;;8.43;7.83;;;15.30;99.90;;;;;;4984967;28;20206;-77
2023/09/04 00:31:40;;;;;;;9.20;8.50;;;15.30;99.90;;;;;;4985239;28;20276;-77
2023/09/04 00:34:07;;;;;;;8.80;8.20;;;15.20;99.90;;;;;;4984959;28;20295;-77
2023/09/04 00:36:35;;;;;;;8.37;7.67;;;15.20;99.90;;;;;;4985413;28;20203;-77
2023/09/04 00:39:02;;;;;;;8.40;7.80;;;15.20;99.90;;;;;;4984856;28;20293;-77
2023/09/04 00:41:29;;;;;;;8.20;7.60;;;15.20;99.90;;;;;;4984423;28;20197;-77
2023/09/04 00:43:56;;;;;;;8.40;7.80;;;15.10;99.90;;;;;;4984529;28;20202;-77
2023/09/04 00:46:23;;;;;;;8.73;8.03;;;15.10;99.90;;;;;;4984243;28;20239;-77
2023/09/04 00:48:50;;;;;;;8.53;7.90;;;15.20;99.90;;;;;;4985423;28;20990;-78
2023/09/04 00:51:18;;;;;;;9.10;8.40;;;15.10;99.90;;;;;;4984304;28;20220;-77
2023/09/04 00:53:47;;;;;;;9.50;8.70;;;15.10;99.90;;;;;;4984232;28;20236;-78
2023/09/04 00:56:15;;;;;;;9.50;8.60;;;15.10;99.90;;;;;;4983825;28;20587;-77
2023/09/04 00:58:42;;;;;;;8.40;7.70;;;15.10;99.90;;;;;;4984093;28;20225;-78
2023/09/04 01:01:09;;;;;;;8.73;7.93;;;15.10;99.90;;;;;;4983795;28;20216;-77
2023/09/04 01:03:36;;;;;;;8.80;8.10;;;15.10;99.90;;;;;;4984148;28;20210;-77
2023/09/04 01:06:03;;;;;;;8.27;7.57;;;15.10;99.90;;;;;;5005928;28;20205;-77
2023/09/04 01:08:30;;;;;;;9.00;8.30;;;15.10;99.90;;;;;;4986801;28;20292;-77
2023/09/04 01:11:09;;;;;;;8.97;8.27;;;15.00;99.90;;;;;;4984079;28;20212;-77
2023/09/04 01:13:41;;;;;;;8.93;8.27;;;15.10;99.90;;;;;;4976347;28;20232;-77
2023/09/04 01:16:09;;;;;;;9.17;8.37;;;15.10;99.90;;;;;;4984422;28;20206;-77
2023/09/04 01:18:36;;;;;;;8.80;8.20;;;15.10;99.90;;;;;;4977070;28;20623;-77
2023/09/04 01:21:05;;;;;;;8.77;7.93;;;15.10;99.90;;;;;;4984008;28;20228;-77
2023/09/04 01:23:33;;;;;;;9.03;8.33;;;15.00;99.90;;;;;;4983888;28;20195;-77
2023/09/04 01:26:09;;;;;;;7.97;7.37;;;15.00;99.90;;;;;;4983160;28;20200;-78
2023/09/04 01:28:42;;;;;;;8.83;8.00;;;15.00;99.90;;;;;;5006961;28;20222;-77
2023/09/04 01:31:16;;;;;;;8.23;7.63;;;15.00;99.90;;;;;;4985003;28;20199;-77
2023/09/04 01:33:48;;;;;;;7.47;6.93;;;15.00;99.90;;;;;;4985137;28;20218;-77
2023/09/04 01:36:17;;;;;;;8.40;7.60;;;14.90;99.90;;;;;;4984212;28;20201;-78
2023/09/04 01:38:46;;;;;;;7.73;7.17;;;14.90;99.90;;;;;;4983984;28;20212;-77
2023/09/04 01:41:13;;;;;;;8.53;7.83;;;14.90;99.90;;;;;;4983285;28;20201;-77
2023/09/04 01:43:40;;;;;;;8.23;7.63;;;14.90;99.90;;;;;;4984839;28;20218;-77
2023/09/04 01:46:07;;;;;;;7.93;7.33;;;14.90;99.90;;;;;;4982365;28;20200;-78
2023/09/04 01:48:35;;;;;;;8.03;7.43;;;14.90;99.90;;;;;;4982973;28;20251;-77
2023/09/04 01:51:02;;;;;;;7.60;7.10;;;14.80;99.90;;;;;;4983936;28;20227;-77
2023/09/04 01:53:30;;;;;;;8.17;7.47;;;14.90;99.90;;;;;;4983696;28;20215;-78
2023/09/04 01:55:58;;;;;;;7.67;7.17;;;14.80;99.90;;;;;;4984190;28;20557;-78
2023/09/04 01:58:25;;;;;;;7.47;6.87;;;14.80;99.90;;;;;;4982443;28;20249;-78
2023/09/04 02:00:53;;;;;;;7.10;6.53;;;14.80;99.90;;;;;;4977567;28;20208;-77
2023/09/04 02:03:19;;;;;;;6.97;6.47;;;14.80;99.90;;;;;;4983830;28;20200;-77
2023/09/04 02:05:46;;;;;;;7.97;6.97;;;14.80;99.90;;;;;;4986307;28;20238;-77
2023/09/04 02:08:13;;;;;;;7.30;6.60;;;14.80;99.90;;;;;;4987782;28;20226;-77
2023/09/04 02:10:42;;;;;;;7.30;6.80;;;14.80;99.90;;;;;;4997775;28;20215;-77
2023/09/04 02:13:09;;;;;;;7.77;7.17;;;14.80;99.90;;;;;;4985799;28;20224;-78
2023/09/04 02:15:37;;;;;;;6.77;6.27;;;14.70;99.90;;;;;;4986565;28;20216;-77
2023/09/04 02:18:04;;;;;;;7.03;6.53;;;14.70;99.90;;;;;;4988379;28;20250;-77
2023/09/04 02:20:32;;;;;;;7.63;6.93;;;14.70;99.90;;;;;;4987931;28;20207;-78
2023/09/04 02:22:59;;;;;;;7.40;6.70;;;14.70;99.90;;;;;;4986133;28;20203;-77
2023/09/04 02:25:26;;;;;;;6.50;5.97;;;14.60;99.90;;;;;;4986157;28;20208;-77
2023/09/04 02:27:55;;;;;;;6.90;6.40;;;14.60;99.90;;;;;;4987789;28;20264;-77
2023/09/04 02:30:22;;;;;;;7.70;7.00;;;14.60;99.90;;;;;;4986212;28;20216;-77
2023/09/04 02:32:49;;;;;;;7.00;6.40;;;14.60;99.90;;;;;;4988299;28;20209;-77
2023/09/04 02:35:16;;;;;;;7.30;6.70;;;14.50;99.90;;;;;;4985797;28;20250;-77
2023/09/04 02:37:44;;;;;;;7.60;6.90;;;14.50;99.90;;;;;;4986369;28;20220;-77
2023/09/04 02:40:12;;;;;;;8.93;6.87;;;14.50;99.90;;;;;;4986350;28;20201;-77
2023/09/04 02:42:39;;;;;;;7.50;6.80;;;14.50;99.90;;;;;;4983031;28;20194;-77
2023/09/04 02:45:09;;;;;;;7.27;6.60;;;14.50;99.90;;;;;;4987352;28;20196;-78
2023/09/04 02:47:37;;;;;;;7.87;6.57;;;14.40;99.90;;;;;;4986693;28;20224;-78
2023/09/04 02:50:05;;;;;;;7.30;6.70;;;14.40;99.90;;;;;;4985786;28;20200;-78
2023/09/04 02:52:32;;;;;;;6.90;6.40;;;14.40;99.90;;;;;;4980665;28;20240;-77
2023/09/04 02:54:59;;;;;;;7.13;6.63;;;14.40;99.90;;;;;;4983453;28;20220;-78
2023/09/04 02:57:26;;;;;;;6.77;6.27;;;14.30;99.90;;;;;;4976265;28;20312;-78
2023/09/04 02:59:53;;;;;;;8.57;7.87;;;14.30;99.90;;;;;;4980571;28;20679;-77
2023/09/04 03:02:22;;;;;;;11.10;10.40;;;14.30;99.90;;;;;;4981157;28;20206;-77
2023/09/04 03:04:54;;;;;;;10.80;10.10;;;14.20;99.90;;;;;;4986561;28;20209;-77
2023/09/04 03:07:21;;;;;;;10.30;9.60;;;14.30;99.90;;;;;;4978697;28;20237;-78
2023/09/04 03:09:48;;;;;;;11.13;10.33;;;14.30;99.90;;;;;;4985974;28;20194;-77
2023/09/04 03:12:15;;;;;;;10.93;10.23;;;14.30;99.90;;;;;;4977060;28;20784;-78
2023/09/04 03:14:41;;;;;;;10.57;9.87;;;14.20;99.90;;;;;;4989865;28;20197;-78
2023/09/04 03:17:08;;;;;;;10.90;10.20;;;14.20;99.90;;;;;;4983950;28;20764;-78
2023/09/04 03:19:37;;;;;;;10.37;9.67;;;14.20;99.90;;;;;;4980280;28;20209;-78
2023/09/04 03:22:04;;;;;;;10.77;10.03;;;14.20;99.90;;;;;;4983693;28;20196;-79
2023/09/04 03:24:31;;;;;;;11.67;10.97;;;14.20;99.90;;;;;;4983350;28;20226;-78
2023/09/04 03:26:58;;;;;;;10.30;9.70;;;14.10;99.90;;;;;;4982972;28;20193;-78
2023/09/04 03:29:27;;;;;;;10.90;10.20;;;14.10;99.90;;;;;;4982078;28;20210;-78
2023/09/04 03:31:54;;;;;;;11.10;10.40;;;14.10;99.90;;;;;;4983712;28;20203;-78
2023/09/04 03:34:20;;;;;;;10.97;10.27;;;14.10;99.90;;;;;;4983484;28;20222;-78
2023/09/04 03:36:49;;;;;;;10.70;10.00;;;14.10;99.90;;;;;;4980009;28;20269;-76
2023/09/04 03:39:15;;;;;;;11.03;10.33;;;14.00;99.90;;;;;;4975350;28;20206;-76
2023/09/04 03:41:43;;;;;;;11.27;10.50;;;14.00;99.90;;;;;;4975849;28;21421;-77
2023/09/04 03:44:09;;;;;;;11.67;10.87;;;14.00;99.90;;;;;;4974776;28;20189;-75
2023/09/04 03:46:36;;;;;;;11.30;10.53;;;13.90;99.90;;;;;;4976473;28;20201;-74
2023/09/04 03:49:04;;;;;;;11.03;10.33;;;13.90;99.90;;;;;;4975205;28;20272;-75
2023/09/04 03:51:30;;;;;;;11.20;10.40;;;13.90;99.90;;;;;;4975948;28;20212;-75
2023/09/04 03:54:01;;;;;;;12.10;11.40;;;13.90;99.90;;;;;;4974557;28;20261;-75
2023/09/04 03:56:29;;;;;;;12.17;11.37;;;13.80;99.90;;;;;;4974807;28;20689;-75
2023/09/04 03:58:56;;;;;;;11.80;11.00;;;13.90;99.90;;;;;;4975312;28;20217;-75
2023/09/04 04:01:23;;;;;;;12.13;11.40;;;13.80;99.90;;;;;;4977887;28;20627;-75
2023/09/04 04:03:50;;;;;;;12.10;11.30;;;13.80;99.90;;;;;;4966552;28;20214;-75
2023/09/04 04:06:18;;;;;;;12.00;11.20;;;13.80;99.90;;;;;;4974510;28;20210;-75
2023/09/04 04:08:45;;;;;;;12.20;11.40;;;13.80;99.90;;;;;;5030448;23;20231;-82
2023/09/04 04:11:13;;;;;;;11.90;11.20;;;13.80;99.90;;;;;;5016586;28;20673;-81
2023/09/04 04:13:41;;;;;;;12.20;11.50;;;13.70;99.90;;;;;;5025340;28;20215;-82
2023/09/04 04:16:11;;;;;;;13.10;12.30;;;13.70;99.90;;;;;;5017718;28;20196;-82
2023/09/04 04:18:37;;;;;;;12.60;11.80;;;13.70;99.90;;;;;;5031650;28;20220;-82
2023/09/04 04:21:06;;;;;;;13.77;12.50;;;13.70;99.90;;;;;;5032150;28;20223;-82
2023/09/04 04:23:33;;;;;;;13.10;12.30;;;13.60;99.90;;;;;;5024168;28;20197;-82
2023/09/04 04:26:00;;;;;;;13.13;12.33;;;13.60;99.90;;;;;;5025334;28;20196;-82
2023/09/04 04:28:28;;;;;;;13.17;12.30;;;13.60;99.90;;;;;;5024846;28;20702;-82
2023/09/04 04:30:57;;;;;;;12.53;11.73;;;13.50;99.90;;;;;;5032942;28;20224;-82
2023/09/04 04:33:24;;;;;;;12.63;11.90;;;13.50;99.90;;;;;;5021155;28;20223;-82
2023/09/04 04:35:53;;;;;;;13.07;12.27;;;13.50;99.90;;;;;;5022247;28;20201;-83
2023/09/04 04:38:20;;;;;;;13.40;12.60;;;13.50;99.90;;;;;;5032162;28;20222;-82
2023/09/04 04:40:47;;;;;;;13.47;12.60;;;13.50;99.90;;;;;;5028417;28;20251;-82
2023/09/04 04:43:15;;;;;;;12.80;12.00;;;13.50;99.90;;;;;;5024314;28;20197;-82
2023/09/04 04:45:45;;;;;;;12.80;12.00;;;13.50;99.90;;;;;;5022469;28;20200;-82
2023/09/04 04:48:12;;;;;;;12.80;11.90;;;13.50;99.90;;;;;;5021292;28;20699;-82
2023/09/04 04:50:39;;;;;;;13.40;12.50;;;13.50;99.90;;;;;;5028594;28;20230;-82
2023/09/04 04:53:06;;;;;;;12.93;12.13;;;13.50;99.90;;;;;;5023647;28;20211;-82
2023/09/04 04:55:33;;;;;;;13.23;12.43;;;13.40;99.90;;;;;;5022434;28;20201;-82
2023/09/04 04:58:00;;;;;;;13.40;12.50;;;13.40;99.90;;;;;;5030256;28;20313;-83
2023/09/04 05:00:27;;;;;;;13.90;12.87;;;13.40;99.90;;;;;;5031100;28;20690;-82
2023/09/04 05:02:55;;;;;;;12.90;12.07;;;13.40;99.90;;;;;;5027902;28;20294;-83
2023/09/04 05:05:25;;;;;;;12.63;11.80;;;13.40;99.90;;;;;;5040831;28;20192;-84
2023/09/04 05:07:52;;;;;;;13.17;12.27;;;13.50;99.90;;;;;;5036474;28;20239;-83
2023/09/04 05:10:19;;;;;;;12.67;11.87;;;13.40;99.90;;;;;;5025814;28;20228;-84
2023/09/04 05:12:45;;;;;;;13.63;12.73;;;13.50;99.90;;;;;;5027157;28;20199;-83
2023/09/04 05:15:13;;;;;;;13.33;12.53;;;13.50;99.90;;;;;;5028997;28;20693;-80
2023/09/04 05:17:41;;;;;;;13.00;12.20;;;13.50;99.90;;;;;;5021580;28;20220;-84
2023/09/04 05:20:11;;;;;;;13.00;12.20;;;13.50;99.90;;;;;;5038810;28;20192;-83
2023/09/04 05:22:37;;;;;;;13.00;12.20;;;13.50;99.90;;;;;;5036627;28;20196;-84
2023/09/04 05:25:05;;;;;;;13.70;12.90;;;13.50;99.90;;;;;;5035483;28;20196;-83
2023/09/04 05:27:32;;;;;;;13.57;12.60;;;13.60;99.90;;;;;;5036124;28;20220;-84
2023/09/04 05:29:59;;;;;;;13.37;12.47;;;13.60;99.90;;;;;;5030087;28;20193;-82
2023/09/04 05:32:26;;;;;;;12.13;11.43;;;13.70;99.90;;;;;;5028852;28;20218;-81
2023/09/04 05:34:53;;;;;;;13.17;12.37;;;13.70;99.90;;;;;;5035778;28;20231;-83
2023/09/04 05:37:22;;;;;;;13.87;12.97;;;13.80;99.90;;;;;;5028824;28;20198;-82
2023/09/04 05:39:49;;;;;;;12.60;11.90;;;13.90;99.90;;;;;;5025144;28;20197;-83
2023/09/04 05:42:16;;;;;;;12.20;11.50;;;14.00;99.90;;;;;;5035635;28;20200;-83
2023/09/04 05:44:43;;;;;;;12.33;11.63;;;14.20;99.90;;;;;;5034710;28;20192;-84
2023/09/04 05:47:10;;;;;;;13.23;12.43;;;14.20;99.90;;;;;;5040983;28;20275;-83
2023/09/04 05:49:37;;;;;;;12.83;12.03;;;14.30;99.90;;;;;;5032611;28;20217;-82
2023/09/04 05:52:04;;;;;;;13.20;12.40;;;14.40;99.90;;;;;;5035512;28;20206;-83
2023/09/04 05:54:32;;;;;;;12.83;11.93;;;14.50;99.90;;;;;;5036215;28;20220;-85
2023/09/04 05:56:59;;;;;;;14.03;13.23;;;14.60;99.90;;;;;;5030405;28;20702;-84
2023/09/04 05:59:26;;;;;;;13.10;12.30;;;14.70;99.90;;;;;;5029387;28;20234;-84
2023/09/04 06:01:53;;;;;;;13.00;12.20;;;14.80;99.90;;;;;;5035477;28;20198;-83
2023/09/04 06:04:20;;;;;;;12.37;11.47;;;14.90;99.90;;;;;;5032453;28;20220;-84
2023/09/04 06:06:47;;;;;;;12.47;11.67;;;15.00;99.90;;;;;;5035627;28;20235;-83
2023/09/04 06:09:14;;;;;;;12.40;11.60;;;15.10;99.90;;;;;;5035989;28;20225;-83
2023/09/04 06:11:42;;;;;;;12.10;11.40;;;15.10;99.90;;;;;;5034783;28;20638;-84
2023/09/04 06:14:09;;;;;;;12.50;11.70;;;15.20;99.90;;;;;;5033473;28;20211;-83
2023/09/04 06:16:36;;;;;;;12.70;11.90;;;15.30;99.90;;;;;;5029645;28;20202;-83
2023/09/04 06:19:03;;;;;;;12.30;11.60;;;15.30;99.90;;;;;;5046265;28;20233;-84
2023/09/04 06:21:30;;;;;;;15.97;14.80;;;15.40;99.90;;;;;;5035367;28;20609;-82
2023/09/04 06:23:57;;;;;;;14.87;13.83;;;15.40;99.90;;;;;;5029240;28;20269;-83
2023/09/04 06:26:24;;;;;;;16.57;15.37;;;15.40;99.90;;;;;;5022492;28;20211;-83
2023/09/04 06:28:52;;;;;;;13.10;12.20;;;15.50;99.90;;;;;;5029372;28;20226;-83
2023/09/04 06:31:19;;;;;;;13.07;12.27;;;15.60;99.90;;;;;;5029831;28;20218;-83
2023/09/04 06:33:47;;;;;;;13.70;12.80;;;15.70;99.90;;;;;;5030020;28;20268;-84
2023/09/04 06:36:14;;;;;;;15.00;14.07;;;15.80;99.90;;;;;;5011281;28;20286;-83
2023/09/04 06:38:41;;;;;;;24.63;23.33;;;15.80;99.90;;;;;;5021219;28;20252;-83
2023/09/04 06:41:08;;;;;;;14.57;13.67;;;15.90;99.90;;;;;;5027988;28;20210;-84
2023/09/04 06:43:35;;;;;;;13.20;12.40;;;16.00;99.90;;;;;;5022077;28;20247;-86
2023/09/04 06:46:03;;;;;;;12.30;11.50;;;16.00;99.90;;;;;;5010052;28;20196;-82
2023/09/04 06:48:30;;;;;;;12.97;12.17;;;16.10;99.90;;;;;;5014893;28;20222;-83
2023/09/04 06:50:57;;;;;;;14.17;13.27;;;16.10;99.90;;;;;;5027624;28;20204;-82
2023/09/04 06:53:24;;;;;;;13.20;12.30;;;16.10;99.90;;;;;;5018273;28;20648;-83
2023/09/04 06:55:52;;;;;;;13.00;12.10;;;16.20;99.90;;;;;;5028772;28;20261;-83
2023/09/04 06:58:19;;;;;;;13.60;12.70;;;16.30;99.90;;;;;;5023037;28;20216;-82
2023/09/04 07:00:45;;;;;;;13.40;12.50;;;16.40;99.90;;;;;;5031921;28;20206;-82
2023/09/04 07:03:14;;;;;;;13.27;12.37;;;16.50;99.90;;;;;;5020154;28;20204;-82
2023/09/04 07:05:41;;;;;;;13.30;12.40;;;16.50;99.90;;;;;;5020956;28;20204;-82
2023/09/04 07:08:08;;;;;;;14.43;13.33;;;16.60;99.90;;;;;;5029711;28;20308;-83
2023/09/04 07:10:35;;;;;;;13.17;12.17;;;16.70;99.90;;;;;;5029405;28;20292;-84
2023/09/04 07:13:03;;;;;;;13.93;12.90;;;16.80;99.90;;;;;;5028189;28;20188;-83
2023/09/04 07:15:30;;;;;;;13.10;12.10;;;16.90;99.90;;;;;;5028999;28;20220;-84
2023/09/04 07:18:00;;;;;;;13.27;12.37;;;17.20;99.90;;;;;;5023143;28;20626;-84
2023/09/04 07:20:28;;;;;;;7.10;6.40;;;17.60;99.90;;;;;;5027240;28;20636;-83
2023/09/04 07:22:55;;;;;;;13.03;12.03;;;18.00;99.90;;;;;;5032427;28;20184;-83
2023/09/04 07:25:22;;;;;;;12.73;11.80;;;18.50;99.90;;;;;;5035331;28;20198;-84
2023/09/04 07:27:49;;;;;;;13.47;12.57;;;19.00;99.90;;;;;;5026552;28;20227;-83
2023/09/04 07:30:16;;;;;;;8.87;8.17;;;19.60;99.90;;;;;;5037449;28;20202;-83
2023/09/04 07:32:43;;;;;;;7.27;5.23;;;20.10;99.90;;;;;;5029400;28;20265;-84
2023/09/04 07:35:11;;;;;;;12.93;11.97;;;20.50;99.90;;;;;;5025775;28;20212;-84
2023/09/04 07:37:39;;;;;;;12.37;11.57;;;21.00;99.90;;;;;;5029068;28;20636;-85
2023/09/04 07:40:08;;;;;;;6.30;5.70;;;21.50;99.90;;;;;;5030865;28;20207;-84
2023/09/04 07:42:36;;;;;;;11.07;10.37;;;22.00;99.90;;;;;;5017981;28;20274;-86
2023/09/04 07:45:03;;;;;;;5.87;5.37;;;22.60;99.90;;;;;;5015676;28;20574;-86
2023/09/04 07:47:30;;;;;;;7.57;6.17;;;22.80;99.90;;;;;;5027094;28;20270;-87
2023/09/04 07:49:57;;;;;;;6.50;5.90;;;22.80;99.90;;;;;;5024651;28;20586;-83
2023/09/04 07:52:24;;;;;;;7.87;7.17;;;22.60;99.90;;;;;;5032991;28;20196;-84
2023/09/04 07:54:52;;;;;;;4.30;4.00;;;22.60;99.90;;;;;;5023760;28;20220;-85
2023/09/04 07:57:19;;;;;;;5.70;4.90;;;22.60;99.90;;;;;;5030403;28;20196;-84
2023/09/04 07:59:46;;;;;;;8.80;8.20;;;22.80;99.90;;;;;;5025920;28;20200;-84
2023/09/04 08:02:12;;;;;;;6.00;4.23;;;23.20;99.90;;;;;;5032197;28;20192;-85
2023/09/04 08:04:39;;;;;;;7.20;6.50;;;23.40;99.90;;;;;;5028311;28;20200;-85
2023/09/04 08:07:06;;;;;;;8.07;7.47;;;23.70;99.90;;;;;;5016004;28;20208;-86
2023/09/04 08:09:34;;;;;;;6.27;4.87;;;24.00;99.90;;;;;;5013433;28;20806;-86
2023/09/04 08:12:02;;;;;;;7.13;4.67;;;24.30;99.90;;;;;;5032617;28;20246;-84
2023/09/04 08:14:33;;;;;;;5.80;5.20;;;24.50;99.90;;;;;;5027979;28;20769;-86
2023/09/04 08:17:01;;;;;;;10.93;10.13;;;24.70;99.90;;;;;;5028761;28;20261;-86
2023/09/04 08:19:28;;;;;;;10.77;9.97;;;24.90;99.90;;;;;;5016498;28;20220;-86
2023/09/04 08:21:57;;;;;;;4.60;4.20;;;25.00;99.90;;;;;;5022024;28;20565;-87
2023/09/04 08:24:23;;;;;;;10.03;9.33;;;25.00;99.90;;;;;;5029541;28;20196;-85
2023/09/04 08:26:50;;;;;;;9.10;8.47;;;24.90;99.90;;;;;;5024729;28;20204;-84
2023/09/04 08:29:18;;;;;;;11.03;10.13;;;24.90;99.90;;;;;;5015046;28;20220;-86
2023/09/04 08:31:45;;;;;;;11.73;10.93;;;25.10;99.90;;;;;;5015785;28;20200;-87
2023/09/04 08:34:12;;;;;;;6.20;5.60;;;25.20;99.90;;;;;;5016610;28;20255;-87
2023/09/04 08:36:39;;;;;;;5.23;4.73;;;25.30;99.90;;;;;;5024829;28;20204;-86
2023/09/04 08:39:06;;;;;;;7.30;6.20;;;25.30;99.90;;;;;;5022282;28;20216;-87
2023/09/04 08:41:32;;;;;;;8.47;7.87;;;25.70;99.90;;;;;;5018326;28;20204;-87
2023/09/04 08:44:00;;;;;;;10.13;9.20;;;25.90;99.90;;;;;;5022909;28;20204;-87
2023/09/04 08:46:30;;;;;;;11.87;11.17;;;25.90;99.90;;;;;;5030962;28;20682;-87
2023/09/04 08:49:01;;;;;;;7.80;7.10;;;25.60;99.90;;;;;;5028923;28;20251;-86
2023/09/04 08:51:28;;;;;;;5.03;4.20;;;25.40;99.90;;;;;;5025580;28;20266;-87
2023/09/04 08:53:56;;;;;;;12.23;11.23;;;25.80;99.90;;;;;;5019762;28;20196;-87
2023/09/04 08:56:23;;;;;;;10.77;9.73;;;25.80;99.90;;;;;;5019406;28;20261;-86
2023/09/04 08:58:50;;;;;;;10.97;10.17;;;25.90;99.90;;;;;;5026905;28;20226;-86
2023/09/04 09:01:19;;;;;;;9.40;8.60;;;26.20;99.90;;;;;;5017878;28;20192;-85
2023/09/04 09:03:48;;;;;;;10.50;9.60;;;26.70;99.90;;;;;;5026148;28;20196;-84
2023/09/04 09:06:15;;;;;;;10.83;9.97;;;26.80;99.90;;;;;;5015761;28;20614;-85
2023/09/04 09:08:45;;;;;;;5.13;4.70;;;26.90;99.90;;;;;;5020044;28;20252;-84
2023/09/04 09:11:14;;;;;;;10.33;9.63;;;27.10;99.90;;;;;;5029791;28;20706;-84
2023/09/04 09:13:41;;;;;;;5.80;5.30;;;27.00;99.90;;;;;;5018952;28;20207;-85
2023/09/04 09:16:07;;;;;;;9.40;8.80;;;27.20;99.90;;;;;;5022021;28;20216;-84
2023/09/04 09:18:35;;;;;;;10.83;10.13;;;27.10;99.90;;;;;;5017239;28;20220;-85
2023/09/04 09:21:21;;;;;;;6.77;6.10;;;26.90;99.90;;;;;;5029991;28;20258;-84
2023/09/04 09:23:48;;;;;;;10.60;9.77;;;26.80;99.90;;;;;;5019949;28;20211;-85
2023/09/04 09:26:15;;;;;;;10.17;9.57;;;26.80;99.90;;;;;;5015100;28;20255;-84
2023/09/04 09:28:44;;;;;;;9.40;8.80;;;26.80;99.90;;;;;;5020491;28;20212;-84
2023/09/04 09:34:32;;;;;;;4.07;3.77;;;26.50;99.90;;;;;;5023046;28;20253;-84
2023/09/04 09:37:01;;;;;;;3.93;3.63;;;27.00;99.90;;;;;;5026842;28;20734;-84
2023/09/04 09:39:29;;;;;;;4.10;3.80;;;27.10;99.90;;;;;;5029480;28;20630;-86
2023/09/04 09:41:59;;;;;;;4.77;4.37;;;27.40;99.90;;;;;;5029659;28;20663;-88
2023/09/04 09:44:30;;;;;;;3.93;3.63;;;27.80;99.90;;;;;;5018293;28;20667;-88
2023/09/04 09:46:57;;;;;;;9.90;9.30;;;27.80;99.90;;;;;;5022424;28;20255;-86
2023/09/04 09:49:24;;;;;;;9.47;8.87;;;27.80;99.90;;;;;;5029117;28;20231;-85
2023/09/04 09:51:53;;;;;;;10.03;9.43;;;28.00;99.90;;;;;;5029260;28;20207;-86
2023/09/04 09:54:37;;;;;;;10.40;9.80;;;27.80;99.90;;;;;;5026938;28;20292;-83
2023/09/04 09:57:07;;;;;;;9.47;8.87;;;28.00;99.90;;;;;;5015755;28;20200;-85
2023/09/04 09:59:35;;;;;;;9.80;9.10;;;28.00;99.90;;;;;;5028337;28;20224;-85
2023/09/04 10:02:27;;;;;;;9.40;8.80;;;28.00;99.90;;;;;;5031159;28;20257;-85
2023/09/04 10:04:55;;;;;;;9.33;8.73;;;27.90;99.90;;;;;;5018992;28;20196;-85
2023/09/04 10:07:27;;;;;;;6.07;5.60;;;27.60;99.90;;;;;;4971675;28;1195192;-84
2023/09/04 10:10:03;;;;;;;9.27;8.70;;;27.40;99.90;;;;;;5001315;23;20311;-77
2023/09/04 10:12:35;;;;;;;8.30;7.70;;;27.30;99.90;;;;;;4987420;28;20211;-76
2023/09/04 10:15:05;;;;;;;9.07;8.37;;;27.30;99.90;;;;;;4979591;28;20591;-76
2023/09/04 10:17:36;;;;;;;8.47;7.97;;;27.30;99.90;;;;;;4989671;28;20206;-77
2023/09/04 10:20:05;;;;;;;8.60;8.10;;;27.30;99.90;;;;;;4978079;28;20313;-77
2023/09/04 10:22:36;;;;;;;8.87;8.27;;;27.30;99.90;;;;;;4974248;28;20692;-77
2023/09/04 10:25:10;;;;;;;8.77;8.17;;;27.30;99.90;;;;;;4982392;28;20292;-76
2023/09/04 10:27:42;;;;;;;8.80;8.20;;;27.20;99.90;;;;;;4984111;28;20207;-76
2023/09/04 10:30:15;;;;;;;9.03;8.43;;;27.10;99.90;;;;;;4982891;28;20213;-77
2023/09/04 10:32:42;;;;;;;4.07;3.67;;;27.00;99.90;;;;;;4984585;28;20209;-77
2023/09/04 10:35:10;;;;;;;8.60;7.87;;;27.00;99.90;;;;;;4981904;28;20691;-78
2023/09/04 10:37:38;;;;;;;8.30;7.77;;;26.90;99.90;;;;;;4984719;28;20589;-77
2023/09/04 10:40:10;;;;;;;8.20;7.70;;;26.90;99.90;;;;;;4979281;28;20532;-77
2023/09/04 10:42:41;;;;;;;8.27;7.77;;;26.70;99.90;;;;;;4988402;28;20224;-79
2023/09/04 10:45:15;;;;;;;8.70;8.10;;;26.50;99.90;;;;;;4990337;28;20201;-77
2023/09/04 10:47:47;;;;;;;9.10;8.40;;;26.50;99.90;;;;;;4988148;28;20583;-78
2023/09/04 10:50:30;;;;;;;8.83;8.23;;;26.60;99.90;;;;;;4989784;28;20210;-79
2023/09/04 10:52:59;;;;;;;8.80;8.20;;;26.60;99.90;;;;;;4985066;28;20257;-78
2023/09/04 10:55:27;;;;;;;5.20;3.60;;;26.50;99.90;;;;;;4992972;28;20222;-78
2023/09/04 10:57:55;;;;;;;3.73;3.43;;;26.40;99.90;;;;;;4985178;28;20194;-79
2023/09/04 11:00:30;;;;;;;6.43;5.83;;;26.60;99.90;;;;;;4989939;28;20276;-79
2023/09/04 11:02:59;;;;;;;5.10;4.70;;;26.60;99.90;;;;;;4994835;28;20244;-77
2023/09/04 11:05:25;;;;;;;5.20;4.80;;;26.60;99.90;;;;;;4991383;28;20197;-77
2023/09/04 11:07:52;;;;;;;7.53;7.03;;;26.60;99.90;;;;;;4992672;28;20201;-78
2023/09/04 11:10:36;;;;;;;3.83;3.53;;;26.60;99.90;;;;;;4991516;28;20197;-78
2023/09/04 11:13:03;;;;;;;4.07;3.60;;;26.60;99.90;;;;;;4988554;28;20208;-77
2023/09/04 11:15:34;;;;;;;6.07;5.57;;;26.50;99.90;;;;;;4996340;28;20273;-78
2023/09/04 11:18:01;;;;;;;5.07;4.67;;;26.40;99.90;;;;;;4984462;28;20228;-78
2023/09/04 11:20:28;;;;;;;4.70;3.27;;;26.30;99.90;;;;;;4987878;28;20201;-78
2023/09/04 11:22:57;;;;;;;7.97;7.47;;;26.20;99.90;;;;;;4985962;28;20200;-76
2023/09/04 11:25:24;;;;;;;8.80;8.10;;;26.30;99.90;;;;;;4990188;28;20273;-78
2023/09/04 11:27:52;;;;;;;7.53;6.27;;;26.30;99.90;;;;;;4986579;28;20661;-78
2023/09/04 11:30:19;;;;;;;5.17;4.67;;;26.30;99.90;;;;;;4982405;28;20194;-78
2023/09/04 11:32:46;;;;;;;5.60;5.20;;;26.40;99.90;;;;;;4986050;28;20248;-78
2023/09/04 11:35:14;;;;;;;5.90;5.40;;;26.40;99.90;;;;;;4990979;28;20244;-78
2023/09/04 11:37:41;;;;;;;6.40;5.90;;;26.30;99.90;;;;;;4991325;28;20206;-79
2023/09/04 11:40:09;;;;;;;6.00;5.50;;;26.40;99.90;;;;;;4989566;28;20225;-78
2023/09/04 11:42:36;;;;;;;4.73;4.33;;;26.50;99.00;;;;;;4989007;28;20190;-78
2023/09/04 11:45:05;;;;;;;5.90;5.40;;;26.40;98.70;;;;;;4985549;28;20197;-78
2023/09/04 11:47:32;;;;;;;6.20;5.60;;;26.40;99.80;;;;;;4987303;28;20194;-78
2023/09/04 11:49:59;;;;;;;7.30;6.80;;;26.40;99.70;;;;;;4990192;28;20214;-79
2023/09/04 11:52:28;;;;;;;7.63;7.13;;;26.30;99.60;;;;;;4984626;28;20260;-78
2023/09/04 11:54:55;;;;;;;8.30;7.60;;;26.20;99.80;;;;;;4987042;28;20198;-78
2023/09/04 11:57:22;;;;;;;7.90;7.40;;;26.30;99.00;;;;;;4996411;28;20679;-78
2023/09/04 11:59:49;;;;;;;8.87;8.27;;;26.30;99.00;;;;;;4989884;28;20946;-79
2023/09/04 12:02:18;;;;;;;8.10;7.50;;;26.30;99.90;;;;;;4993582;28;20248;-78
2023/09/04 12:04:46;;;;;;;6.57;6.07;;;26.30;99.90;;;;;;4985435;28;20217;-78
2023/09/04 12:07:16;;;;;;;4.73;3.20;;;26.30;99.40;;;;;;4991343;28;20687;-79
2023/09/04 12:09:42;;;;;;;3.87;3.50;;;26.30;98.80;;;;;;4995520;28;20306;-78
2023/09/04 12:12:09;;;;;;;3.50;3.20;;;26.40;99.80;;;;;;4981721;28;20202;-78
2023/09/04 12:14:43;;;;;;;3.63;3.33;;;26.40;97.80;;;;;;4990856;28;20399;-78
2023/09/04 12:17:11;;;;;;;4.67;4.00;;;26.30;98.90;;;;;;4987877;28;20217;-78
2023/09/04 12:19:41;;;;;;;4.00;3.70;;;26.40;99.40;;;;;;4992415;28;20701;-78
2023/09/04 12:22:13;;;;;;;4.77;4.27;;;26.50;98.40;;;;;;4995192;28;20193;-78
2023/09/04 12:24:39;;;;;;;4.57;4.23;;;26.60;99.10;;;;;;4991900;28;20452;-77
2023/09/04 12:27:07;;;;;;;5.47;4.33;;;26.60;98.20;;;;;;4996232;28;20197;-78
2023/09/04 12:29:35;;;;;;;4.63;4.23;;;26.60;98.70;;;;;;4989445;28;20315;-79
2023/09/04 12:32:03;;;;;;;4.73;4.33;;;26.60;98.20;;;;;;4988010;28;20575;-76
2023/09/04 12:34:31;;;;;;;4.50;4.10;;;26.60;98.60;;;;;;4990290;28;20209;-77
2023/09/04 12:36:59;;;;;;;5.37;4.87;;;26.60;98.10;;;;;;4986640;28;20273;-76
2023/09/04 12:39:26;;;;;;;4.60;4.17;;;26.60;99.20;;;;;;4987932;28;20252;-76
2023/09/04 12:41:55;;;;;;;5.80;4.30;;;26.60;99.40;;;;;;4986446;28;20256;-76
2023/09/04 12:44:22;;;;;;;4.33;3.93;;;26.50;98.70;;;;;;4983974;28;20689;-76
2023/09/04 12:46:49;;;;;;;4.53;3.70;;;26.50;99.80;;;;;;4984517;28;20197;-76